Time;durP1;ratioP1;P1;durP2;ratioP2;P2;SDS_P1;SDS_P2;PMS_P1;PMS_P2;Temp;Humidity;BMP_temperature;BMP_pressure;BME280_temperature;BME280_humidity;BME280_pressure;Samples;Min_cycle;Max_cycle;Signal;HPM_P1;HPM_P2
2021/05/26 00:01:35;;;;;;;6.95;3.45;;;359.10;2329.60;;;;;;5073407;28;20487;-83
2021/05/26 00:04:01;;;;;;;5.05;3.03;;;359.10;2329.60;;;;;;5071499;28;20055;-82
2021/05/26 00:06:26;;;;;;;6.57;3.33;;;359.10;2329.60;;;;;;5072358;28;20511;-82
2021/05/26 00:08:52;;;;;;;6.40;3.30;;;359.10;2329.60;;;;;;5072828;28;20111;-82
2021/05/26 00:11:18;;;;;;;4.70;2.90;;;359.00;2329.60;;;;;;5071177;28;20016;-81
2021/05/26 00:13:45;;;;;;;4.47;3.13;;;358.90;2329.60;;;;;;5071347;28;20479;-82
2021/05/26 00:16:12;;;;;;;8.23;3.35;;;359.00;2329.60;;;;;;5072587;28;20483;-82
2021/05/26 00:18:38;;;;;;;4.90;3.08;;;359.00;2329.60;;;;;;5071752;28;20058;-82
2021/05/26 00:21:05;;;;;;;6.25;2.95;;;359.10;2329.60;;;;;;5071383;28;20506;-82
2021/05/26 00:23:31;;;;;;;5.40;2.45;;;359.30;2329.60;;;;;;5071782;28;20090;-81
2021/05/26 00:25:57;;;;;;;5.53;2.75;;;359.10;2329.60;;;;;;5071149;28;20422;-81
2021/05/26 00:28:22;;;;;;;6.22;2.92;;;359.10;2329.60;;;;;;5073020;28;20021;-82
2021/05/26 00:30:51;;;;;;;4.88;2.08;;;359.00;2329.60;;;;;;5072592;28;20052;-81
2021/05/26 00:33:20;;;;;;;3.28;2.13;;;359.00;2329.60;;;;;;5071431;28;20016;-81
2021/05/26 00:35:46;;;;;;;5.25;2.85;;;359.00;2329.60;;;;;;5072422;28;20495;-82
2021/05/26 00:38:13;;;;;;;6.78;3.08;;;359.00;2329.60;;;;;;5072348;28;20463;-82
2021/05/26 00:40:40;;;;;;;6.28;2.55;;;359.00;2329.60;;;;;;5071552;28;20030;-81
2021/05/26 00:43:06;;;;;;;4.82;3.05;;;358.90;2329.60;;;;;;5071206;28;20025;-81
2021/05/26 00:45:32;;;;;;;5.75;2.45;;;358.90;2329.60;;;;;;5071418;28;20047;-82
2021/05/26 00:47:59;;;;;;;7.45;2.40;;;358.90;2329.60;;;;;;5072427;28;20065;-81
2021/05/26 00:50:27;;;;;;;5.78;3.20;;;358.90;2329.60;;;;;;5071423;28;20017;-81
2021/05/26 00:52:53;;;;;;;6.15;3.05;;;358.80;2329.60;;;;;;5072535;28;20024;-82
2021/05/26 00:55:21;;;;;;;4.22;2.72;;;358.70;2329.60;;;;;;5071017;28;20020;-81
2021/05/26 00:57:48;;;;;;;4.70;3.17;;;358.70;2329.60;;;;;;5072595;28;20024;-81
2021/05/26 01:00:20;;;;;;;4.30;2.80;;;358.70;2329.60;;;;;;5071001;28;20025;-81
2021/05/26 01:02:52;;;;;;;6.90;3.22;;;358.70;2329.60;;;;;;5072430;28;20059;-82
2021/05/26 01:05:21;;;;;;;7.00;3.55;;;358.70;2329.60;;;;;;5070669;28;20037;-81
2021/05/26 01:07:47;;;;;;;5.88;3.05;;;358.70;2329.60;;;;;;5072155;28;20817;-80
2021/05/26 01:10:15;;;;;;;4.25;2.70;;;358.60;2329.60;;;;;;5070505;28;20021;-80
2021/05/26 01:12:40;;;;;;;4.32;2.50;;;358.60;2329.60;;;;;;5070012;28;20848;-80
2021/05/26 01:15:09;;;;;;;6.07;2.80;;;358.60;2329.60;;;;;;5071290;28;20056;-81
2021/05/26 01:17:35;;;;;;;7.68;3.65;;;358.70;2329.60;;;;;;5071325;28;20782;-81
2021/05/26 01:20:05;;;;;;;6.07;3.05;;;358.70;2329.60;;;;;;5070092;28;20060;-81
2021/05/26 01:22:31;;;;;;;5.68;3.38;;;358.50;2329.60;;;;;;5071484;28;20103;-80
2021/05/26 01:24:57;;;;;;;10.95;3.25;;;358.40;2329.60;;;;;;5072159;28;20111;-81
2021/05/26 01:27:23;;;;;;;5.22;3.40;;;358.40;2329.60;;;;;;5070747;28;20070;-81
2021/05/26 01:29:50;;;;;;;7.80;3.53;;;358.40;2329.60;;;;;;5072003;28;20032;-80
2021/05/26 01:32:16;;;;;;;6.90;3.40;;;358.40;2329.60;;;;;;5071890;28;20021;-80
2021/05/26 01:34:42;;;;;;;7.15;3.17;;;358.40;2329.60;;;;;;5070580;28;20025;-81
2021/05/26 01:37:09;;;;;;;4.53;2.97;;;358.40;2329.60;;;;;;5071868;28;20044;-80
2021/05/26 01:39:35;;;;;;;6.18;3.95;;;358.40;2329.60;;;;;;5069979;28;20123;-80
2021/05/26 01:42:01;;;;;;;8.13;3.33;;;333.70;2329.60;;;;;;5072049;28;20099;-80
2021/05/26 01:44:27;;;;;;;5.85;3.58;;;333.50;2329.60;;;;;;5078905;28;20028;-80
2021/05/26 01:46:53;;;;;;;5.15;3.67;;;333.50;2329.60;;;;;;5075917;28;20032;-80
2021/05/26 01:49:19;;;;;;;10.70;4.25;;;333.50;2329.60;;;;;;5071451;28;20029;-80
2021/05/26 01:51:45;;;;;;;8.25;3.33;;;333.50;2329.60;;;;;;5071634;28;20029;-80
2021/05/26 01:54:11;;;;;;;5.90;3.53;;;333.50;2329.60;;;;;;5071448;28;20150;-80
2021/05/26 01:56:37;;;;;;;5.88;3.47;;;333.50;2329.60;;;;;;5072007;28;20025;-81
2021/05/26 01:59:03;;;;;;;9.32;3.88;;;333.50;2329.60;;;;;;5071477;28;20035;-81
2021/05/26 02:01:29;;;;;;;6.55;3.67;;;333.50;2329.60;;;;;;5070892;28;20056;-81
2021/05/26 02:03:55;;;;;;;7.10;2.92;;;333.50;2329.60;;;;;;5070489;28;20610;-82
2021/05/26 02:06:22;;;;;;;9.10;3.47;;;333.50;2329.60;;;;;;5071180;28;20120;-81
2021/05/26 02:08:54;;;;;;;8.52;3.75;;;333.60;2329.60;;;;;;5070429;28;20384;-80
2021/05/26 02:14:07;;;;;;;8.05;3.72;;;333.50;2329.60;;;;;;5072083;28;20043;-81
2021/05/26 02:16:34;;;;;;;6.00;3.88;;;333.50;2329.60;;;;;;5071878;28;20062;-81
2021/05/26 02:19:00;;;;;;;5.68;2.92;;;333.50;2329.60;;;;;;5086833;28;20559;-80
2021/05/26 02:21:26;;;;;;;5.75;3.08;;;333.50;2329.60;;;;;;5070143;28;20115;-80
2021/05/26 02:23:52;;;;;;;17.15;4.25;;;333.40;2329.60;;;;;;5070197;28;20032;-81
2021/05/26 02:26:18;;;;;;;5.38;3.15;;;333.30;2329.60;;;;;;5071639;28;20377;-80
2021/05/26 02:28:44;;;;;;;4.65;3.10;;;333.30;2329.60;;;;;;5069827;28;20020;-81
2021/05/26 02:31:10;;;;;;;5.63;3.30;;;333.30;2329.60;;;;;;5074064;28;20031;-80
2021/05/26 02:33:37;;;;;;;7.10;2.80;;;333.20;2329.60;;;;;;5074724;28;20049;-81
2021/05/26 02:36:05;;;;;;;5.50;3.42;;;333.30;2329.60;;;;;;5074935;28;20493;-81
2021/05/26 02:38:31;;;;;;;4.18;2.83;;;333.10;2329.60;;;;;;5060788;28;20035;-80
2021/05/26 02:40:56;;;;;;;6.32;3.25;;;333.10;2329.60;;;;;;5074701;28;20067;-81
2021/05/26 02:43:22;;;;;;;8.57;3.75;;;333.10;2329.60;;;;;;5076333;28;20120;-80
2021/05/26 02:45:48;;;;;;;4.10;3.17;;;333.10;2329.60;;;;;;5073034;28;20033;-80
2021/05/26 02:48:14;;;;;;;7.38;2.70;;;333.10;2329.60;;;;;;5074964;28;20009;-80
2021/05/26 02:50:40;;;;;;;7.30;3.42;;;333.20;2329.60;;;;;;5072813;28;20035;-80
2021/05/26 02:53:06;;;;;;;5.10;3.42;;;333.10;2329.60;;;;;;5072564;28;20032;-81
2021/05/26 02:55:32;;;;;;;7.57;3.83;;;333.10;2329.60;;;;;;5074449;28;20563;-81
2021/05/26 02:57:58;;;;;;;6.18;4.38;;;333.10;2329.60;;;;;;5073046;28;20124;-80
2021/05/26 03:00:24;;;;;;;11.10;3.47;;;333.20;2329.60;;;;;;5072641;28;20082;-80
2021/05/26 03:02:51;;;;;;;8.27;4.25;;;333.30;2329.60;;;;;;5073175;28;20024;-80
2021/05/26 03:05:18;;;;;;;7.45;4.88;;;333.10;2329.60;;;;;;5073956;28;20068;-80
2021/05/26 03:07:45;;;;;;;6.80;4.80;;;332.90;2329.60;;;;;;5072567;28;20036;-80
2021/05/26 03:10:13;;;;;;;8.73;4.70;;;332.80;2329.60;;;;;;5074329;28;20100;-80
2021/05/26 03:12:40;;;;;;;9.82;4.30;;;332.80;2329.60;;;;;;5072135;28;20584;-82
2021/05/26 03:15:08;;;;;;;9.50;4.78;;;308.10;2304.00;;;;;;5073024;28;20032;-81
2021/05/26 03:17:35;;;;;;;6.68;4.78;;;308.00;2304.00;;;;;;5072904;28;20032;-81
2021/05/26 03:20:02;;;;;;;9.65;4.50;;;308.00;2304.00;;;;;;5073196;28;20020;-82
2021/05/26 03:22:28;;;;;;;12.82;5.63;;;307.90;2304.00;;;;;;5066901;28;20056;-81
2021/05/26 03:24:53;;;;;;;6.68;4.55;;;308.00;2304.00;;;;;;5086882;28;20483;-81
2021/05/26 03:27:26;;;;;;;11.75;4.65;;;308.10;2304.00;;;;;;5088320;28;20162;-81
2021/05/26 03:29:52;;;;;;;8.15;4.32;;;332.80;2329.60;;;;;;5081137;28;20017;-82
2021/05/26 03:32:18;;;;;;;8.60;4.03;;;333.00;2329.60;;;;;;5080875;28;20471;-81
2021/05/26 03:34:44;;;;;;;5.25;3.50;;;333.10;2329.60;;;;;;5074746;28;20029;-81
2021/05/26 03:37:13;;;;;;;6.30;3.58;;;333.10;2329.60;;;;;;5069151;28;20399;-81
2021/05/26 03:39:39;;;;;;;8.70;4.03;;;333.10;2329.60;;;;;;5081745;28;20029;-81
2021/05/26 03:42:05;;;;;;;5.88;3.83;;;333.10;2329.60;;;;;;5080880;28;20028;-81
2021/05/26 03:44:31;;;;;;;6.05;3.70;;;333.30;2329.60;;;;;;5072087;28;20491;-81
2021/05/26 03:46:57;;;;;;;9.40;4.28;;;333.30;2329.60;;;;;;5073302;28;20111;-80
2021/05/26 03:49:22;;;;;;;6.25;3.60;;;333.20;2329.60;;;;;;5071932;28;20024;-81
2021/05/26 03:51:48;;;;;;;8.60;4.07;;;333.10;2329.60;;;;;;5072725;28;20021;-81
2021/05/26 03:54:14;;;;;;;6.55;3.58;;;333.10;2329.60;;;;;;5089153;28;20444;-81
2021/05/26 03:56:41;;;;;;;7.18;3.05;;;333.10;2329.60;;;;;;5071920;28;20382;-80
2021/05/26 03:59:08;;;;;;;5.25;2.40;;;333.00;2329.60;;;;;;5072182;28;20028;-80
2021/05/26 04:01:35;;;;;;;3.40;2.42;;;333.00;2329.60;;;;;;5073442;28;20024;-81
2021/05/26 04:04:01;;;;;;;4.28;2.40;;;333.00;2329.60;;;;;;5072282;28;20044;-82
2021/05/26 04:06:26;;;;;;;5.10;2.53;;;333.20;2329.60;;;;;;5071700;28;20499;-82
2021/05/26 04:08:52;;;;;;;3.85;2.53;;;333.20;2329.60;;;;;;5071806;28;20039;-82
2021/05/26 04:11:18;;;;;;;4.00;1.92;;;333.40;2329.60;;;;;;5088901;28;20424;-82
2021/05/26 04:13:44;;;;;;;5.25;2.80;;;333.40;2329.60;;;;;;5072283;28;20118;-82
2021/05/26 04:16:10;;;;;;;5.65;2.33;;;333.30;2329.60;;;;;;5071395;28;20138;-82
2021/05/26 04:18:36;;;;;;;4.82;1.85;;;333.40;2329.60;;;;;;5071008;28;20400;-80
2021/05/26 04:21:02;;;;;;;4.30;2.45;;;333.40;2329.60;;;;;;5071866;28;20426;-81
2021/05/26 04:23:28;;;;;;;4.97;2.20;;;333.50;2329.60;;;;;;5071580;28;20154;-82
2021/05/26 04:25:53;;;;;;;4.50;1.70;;;333.50;2329.60;;;;;;5071835;28;20479;-82
2021/05/26 04:28:21;;;;;;;5.18;2.00;;;333.50;2329.60;;;;;;5070651;28;20116;-82
2021/05/26 04:30:47;;;;;;;5.43;2.70;;;333.70;2329.60;;;;;;5092424;28;20021;-80
2021/05/26 04:33:14;;;;;;;5.35;2.30;;;358.40;2329.60;;;;;;5087887;28;20047;-80
2021/05/26 04:35:39;;;;;;;4.53;2.13;;;358.40;2329.60;;;;;;5086245;28;20082;-80
2021/05/26 04:38:05;;;;;;;3.67;2.75;;;358.40;2329.60;;;;;;5084121;28;20033;-80
2021/05/26 04:40:31;;;;;;;4.40;2.50;;;358.60;2329.60;;;;;;5076014;28;20021;-81
2021/05/26 04:42:57;;;;;;;4.22;2.45;;;358.60;2329.60;;;;;;5065911;28;20092;-81
2021/05/26 04:45:23;;;;;;;3.95;1.85;;;358.80;2329.60;;;;;;5075880;28;20028;-81
2021/05/26 04:47:48;;;;;;;5.03;2.08;;;358.80;2329.60;;;;;;5080620;28;20035;-80
2021/05/26 04:50:15;;;;;;;3.58;2.33;;;358.90;2329.60;;;;;;5067797;28;20029;-80
2021/05/26 04:52:43;;;;;;;3.08;1.73;;;384.00;2329.60;;;;;;5087127;28;20028;-80
2021/05/26 04:55:10;;;;;;;5.43;2.17;;;384.10;2329.60;;;;;;5071988;28;20040;-80
2021/05/26 04:57:35;;;;;;;6.32;2.08;;;384.40;2329.60;;;;;;5076215;28;20114;-81
2021/05/26 05:00:02;;;;;;;3.00;1.90;;;384.20;2329.60;;;;;;5077032;28;20119;-80
2021/05/26 05:02:28;;;;;;;5.38;2.53;;;384.20;2329.60;;;;;;5076990;28;20024;-81
2021/05/26 05:04:54;;;;;;;5.78;2.08;;;384.40;2329.60;;;;;;5084847;28;20073;-82
2021/05/26 05:07:19;;;;;;;5.57;2.83;;;384.20;2329.60;;;;;;5076389;28;20402;-81
2021/05/26 05:09:45;;;;;;;4.25;1.95;;;384.60;2329.60;;;;;;5069832;28;20028;-81
2021/05/26 05:12:11;;;;;;;5.43;2.67;;;384.70;2329.60;;;;;;5072481;28;20050;-81
2021/05/26 05:14:37;;;;;;;8.30;2.20;;;409.60;2355.20;;;;;;5082885;28;20024;-81
2021/05/26 05:17:02;;;;;;;5.43;2.00;;;409.90;2304.00;;;;;;5065613;28;20029;-81
2021/05/26 05:19:28;;;;;;;2.72;1.85;;;410.00;2252.80;;;;;;5071924;28;20035;-82
2021/05/26 05:21:54;;;;;;;3.72;1.60;;;410.10;2227.20;;;;;;5080184;28;20588;-81
2021/05/26 05:24:20;;;;;;;3.60;2.20;;;410.30;2201.60;;;;;;5082694;28;20048;-80
2021/05/26 05:26:46;;;;;;;2.95;2.10;;;410.30;2201.60;;;;;;5077699;28;20028;-81
2021/05/26 05:29:11;;;;;;;3.75;2.45;;;410.30;2201.60;;;;;;5072887;28;20028;-81
2021/05/26 05:31:37;;;;;;;2.67;1.85;;;410.30;2176.00;;;;;;5076098;28;20047;-80
2021/05/26 05:34:03;;;;;;;4.28;2.10;;;435.20;2176.00;;;;;;5069566;28;20123;-80
2021/05/26 05:36:29;;;;;;;5.35;3.03;;;435.20;2124.80;;;;;;5067212;28;20036;-80
2021/05/26 05:38:55;;;;;;;7.47;2.20;;;435.20;2099.20;;;;;;5072037;28;20033;-81
2021/05/26 05:41:20;;;;;;;7.30;2.30;;;435.40;2099.20;;;;;;5084492;28;20450;-81
2021/05/26 05:43:46;;;;;;;5.53;2.03;;;435.50;2099.20;;;;;;5103189;28;20060;-83
2021/05/26 05:46:12;;;;;;;4.60;2.33;;;435.80;2099.20;;;;;;5070550;28;20031;-80
2021/05/26 05:48:38;;;;;;;7.32;2.83;;;436.00;2048.00;;;;;;5070013;28;20027;-80
2021/05/26 05:51:04;;;;;;;4.68;3.00;;;460.80;2073.60;;;;;;5082623;28;20028;-79
2021/05/26 05:53:29;;;;;;;4.18;2.00;;;460.80;2022.40;;;;;;5085999;28;20035;-80
2021/05/26 05:56:00;;;;;;;5.70;2.20;;;460.90;1945.60;;;;;;5080725;28;20100;-79
2021/05/26 05:58:26;;;;;;;2.85;1.80;;;460.90;1945.60;;;;;;5081056;28;20023;-80
2021/05/26 06:00:52;;;;;;;6.38;2.33;;;461.10;1920.00;;;;;;5087054;28;20024;-80
2021/05/26 06:03:18;;;;;;;5.60;2.13;;;461.30;1894.40;;;;;;5071826;28;20023;-80
2021/05/26 06:05:44;;;;;;;6.35;2.28;;;461.30;1920.00;;;;;;5084766;28;20494;-79
2021/05/26 06:08:09;;;;;;;13.10;2.70;;;461.30;1894.40;;;;;;5069927;28;20033;-78
2021/05/26 06:10:35;;;;;;;7.88;3.35;;;461.20;1945.60;;;;;;5065986;28;20020;-78
2021/05/26 06:13:06;;;;;;;3.88;1.92;;;461.40;1920.00;;;;;;5080246;28;20060;-81
2021/05/26 06:15:31;;;;;;;6.40;2.20;;;461.70;1843.20;;;;;;5086186;28;20506;-80
2021/05/26 06:18:02;;;;;;;5.53;2.42;;;461.70;1817.60;;;;;;5090874;28;20032;-79
2021/05/26 06:20:28;;;;;;;5.15;1.98;;;461.70;1843.20;;;;;;5069989;28;20120;-80
2021/05/26 06:22:53;;;;;;;4.88;1.77;;;486.40;1843.20;;;;;;5086106;28;20107;-81
2021/05/26 06:25:20;;;;;;;13.10;2.03;;;461.70;1843.20;;;;;;5086422;28;20055;-80
2021/05/26 06:27:45;;;;;;;5.13;2.58;;;461.50;1843.20;;;;;;5080907;28;20051;-80
2021/05/26 06:30:12;;;;;;;13.07;3.13;;;461.60;1843.20;;;;;;5075999;28;20032;-80
2021/05/26 06:32:37;;;;;;;7.47;2.80;;;461.70;1868.80;;;;;;5074775;28;20032;-79
2021/05/26 06:35:04;;;;;;;6.57;2.05;;;486.40;1843.20;;;;;;5072699;28;20025;-80
2021/05/26 06:37:30;;;;;;;4.47;2.28;;;486.40;1843.20;;;;;;5082018;28;20045;-80
2021/05/26 06:39:55;;;;;;;3.60;2.05;;;486.60;1817.60;;;;;;5073281;28;20025;-80
2021/05/26 06:42:21;;;;;;;8.27;3.58;;;486.90;1817.60;;;;;;5087511;28;20078;-80
2021/05/26 06:44:48;;;;;;;5.47;2.30;;;487.10;1817.60;;;;;;5086051;28;20391;-80
2021/05/26 06:47:13;;;;;;;8.43;2.60;;;512.10;1766.40;;;;;;5084222;28;20024;-80
2021/05/26 06:49:39;;;;;;;7.95;2.25;;;512.50;1715.20;;;;;;5080966;28;20036;-79
2021/05/26 06:52:05;;;;;;;5.35;2.17;;;512.30;1664.00;;;;;;5084338;28;20013;-80
2021/05/26 06:54:31;;;;;;;4.53;2.10;;;512.40;1638.40;;;;;;5080842;28;20052;-79
2021/05/26 06:56:56;;;;;;;4.22;1.73;;;512.40;1715.20;;;;;;5081123;28;20115;-80
2021/05/26 06:59:22;;;;;;;6.32;2.55;;;512.30;1664.00;;;;;;5081799;28;20398;-80
2021/05/26 07:01:48;;;;;;;3.78;1.90;;;512.30;1664.00;;;;;;5082473;28;20024;-80
2021/05/26 07:04:14;;;;;;;3.72;2.03;;;512.50;1638.40;;;;;;5082489;28;20039;-80
2021/05/26 07:06:40;;;;;;;7.38;2.65;;;512.60;1587.20;;;;;;5084759;28;20075;-78
2021/05/26 07:09:08;;;;;;;3.65;2.40;;;512.80;1638.40;;;;;;5072584;28;20036;-79
2021/05/26 07:11:34;;;;;;;7.05;2.05;;;512.90;1587.20;;;;;;5089807;28;20036;-79
2021/05/26 07:13:59;;;;;;;5.45;2.72;;;538.00;1587.20;;;;;;5083179;28;20024;-79
2021/05/26 07:16:25;;;;;;;5.80;3.47;;;538.00;1612.80;;;;;;5087569;28;20028;-79
2021/05/26 07:18:52;;;;;;;5.95;2.67;;;538.10;1612.80;;;;;;5082830;28;20025;-79
2021/05/26 07:21:17;;;;;;;4.28;2.03;;;538.40;1561.60;;;;;;5090748;28;20034;-79
2021/05/26 07:23:43;;;;;;;7.18;2.97;;;538.10;1536.00;;;;;;5091221;28;20036;-79
2021/05/26 07:26:10;;;;;;;5.53;2.47;;;537.80;1561.60;;;;;;5086838;28;20120;-79
2021/05/26 07:28:37;;;;;;;3.78;2.05;;;538.30;1510.40;;;;;;5076775;28;20032;-79
2021/05/26 07:31:03;;;;;;;4.28;2.55;;;538.40;1510.40;;;;;;5084100;28;20032;-80
2021/05/26 07:33:30;;;;;;;4.72;2.17;;;538.20;1536.00;;;;;;5083882;28;20107;-80
2021/05/26 07:35:55;;;;;;;6.88;2.70;;;538.40;1510.40;;;;;;5081445;28;20402;-80
2021/05/26 07:38:21;;;;;;;3.75;2.30;;;538.40;1484.80;;;;;;5082740;28;20024;-81
2021/05/26 07:40:47;;;;;;;4.68;2.20;;;538.40;1561.60;;;;;;5089499;28;20051;-79
2021/05/26 07:43:13;;;;;;;2.90;1.77;;;563.20;1510.40;;;;;;5080149;28;20520;-79
2021/05/26 07:45:39;;;;;;;5.07;1.92;;;563.30;1408.00;;;;;;5079163;28;20119;-80
2021/05/26 07:48:05;;;;;;;3.92;2.08;;;563.30;1510.40;;;;;;5084382;28;20032;-79
2021/05/26 07:50:36;;;;;;;6.68;2.10;;;563.60;1484.80;;;;;;5088339;28;20126;-79
2021/05/26 07:53:03;;;;;;;5.95;2.10;;;563.60;1484.80;;;;;;5088212;28;20028;-79
2021/05/26 07:55:30;;;;;;;4.40;1.88;;;563.40;1484.80;;;;;;5078319;28;20131;-79
2021/05/26 07:57:56;;;;;;;4.03;2.13;;;563.60;1459.20;;;;;;5081571;28;20035;-79
2021/05/26 08:00:22;;;;;;;3.60;2.05;;;564.00;1459.20;;;;;;5081132;28;20033;-81
2021/05/26 08:02:48;;;;;;;3.85;2.22;;;563.90;1408.00;;;;;;5079343;28;20048;-80
2021/05/26 08:05:15;;;;;;;3.05;1.35;;;563.90;1382.40;;;;;;5079801;28;20102;-79
2021/05/26 08:07:42;;;;;;;6.65;1.85;;;588.80;1356.80;;;;;;5081777;28;20602;-80
2021/05/26 08:10:08;;;;;;;12.32;3.33;;;589.30;1356.80;;;;;;5081534;28;20028;-80
2021/05/26 08:12:34;;;;;;;3.58;2.00;;;589.60;1408.00;;;;;;5081381;28;20089;-80
2021/05/26 08:15:00;;;;;;;2.70;1.67;;;589.30;1356.80;;;;;;5080197;28;20531;-79
2021/05/26 08:17:25;;;;;;;2.53;1.70;;;589.60;1305.60;;;;;;5084660;28;20657;-80
2021/05/26 08:19:51;;;;;;;3.97;1.35;;;589.30;1331.20;;;;;;5079633;28;20368;-79
2021/05/26 08:22:17;;;;;;;7.53;1.88;;;589.70;1305.60;;;;;;5078973;28;20507;-79
2021/05/26 08:24:43;;;;;;;5.45;1.92;;;614.60;1305.60;;;;;;5084966;28;20055;-81
2021/05/26 08:27:08;;;;;;;2.80;1.85;;;589.70;1305.60;;;;;;5078964;28;20033;-80
2021/05/26 08:29:34;;;;;;;4.55;2.50;;;589.70;1331.20;;;;;;5080348;28;20032;-79
2021/05/26 08:32:02;;;;;;;2.78;1.38;;;614.40;1356.80;;;;;;5076021;28;20564;-79
2021/05/26 08:34:28;;;;;;;3.50;1.55;;;614.40;1280.00;;;;;;5073263;28;20036;-79
2021/05/26 08:36:55;;;;;;;6.18;1.88;;;614.60;1254.40;;;;;;5079664;28;20099;-79
2021/05/26 08:39:21;;;;;;;3.47;1.63;;;614.70;1280.00;;;;;;5083312;28;20035;-80
2021/05/26 08:41:51;;;;;;;8.18;3.08;;;614.80;1254.40;;;;;;5080919;28;20028;-80
2021/05/26 08:44:18;;;;;;;5.07;1.52;;;614.90;1228.80;;;;;;5076375;28;20115;-80
2021/05/26 08:46:44;;;;;;;4.68;1.90;;;614.90;1228.80;;;;;;5080021;28;20417;-81
2021/05/26 08:49:11;;;;;;;1.92;1.35;;;614.90;1228.80;;;;;;5076230;28;20060;-80
2021/05/26 08:51:36;;;;;;;4.63;1.83;;;614.70;1305.60;;;;;;5082356;28;20028;-81
2021/05/26 08:54:03;;;;;;;2.38;1.10;;;615.00;1280.00;;;;;;5077133;28;20169;-80
2021/05/26 08:56:28;;;;;;;3.28;1.70;;;615.30;1152.00;;;;;;5081777;28;20028;-79
2021/05/26 08:58:55;;;;;;;2.42;1.10;;;640.10;1100.80;;;;;;5078163;28;20040;-80
2021/05/26 09:01:21;;;;;;;2.22;1.20;;;640.00;1075.20;;;;;;5085904;28;20063;-80
2021/05/26 09:03:51;;;;;;;3.35;1.23;;;640.10;1126.40;;;;;;5074640;28;20052;-80
2021/05/26 09:06:17;;;;;;;3.28;1.45;;;640.30;1100.80;;;;;;5075379;28;20438;-80
2021/05/26 09:08:48;;;;;;;3.65;1.75;;;665.70;1100.80;;;;;;5078005;28;20100;-80
2021/05/26 09:11:15;;;;;;;2.83;1.23;;;665.70;1100.80;;;;;;5072898;28;20112;-80
2021/05/26 09:13:43;;;;;;;3.58;1.45;;;665.90;1075.20;;;;;;5065279;28;20025;-79
2021/05/26 09:16:22;;;;;;;3.80;1.15;;;666.10;1024.00;;;;;;5077424;28;20384;-79
2021/05/26 09:19:09;;;;;;;1.85;1.23;;;665.90;1049.60;;;;;;5061301;28;20031;-78
2021/05/26 09:21:46;;;;;;;3.40;1.50;;;666.10;1049.60;;;;;;5073151;28;20043;-78
2021/05/26 09:24:21;;;;;;;2.50;1.00;;;666.30;1075.20;;;;;;5068204;28;20025;-78
2021/05/26 09:27:01;;;;;;;2.15;0.95;;;666.20;1024.00;;;;;;5062471;28;20027;-78
2021/05/26 09:29:31;;;;;;;1.75;1.08;;;666.30;998.40;;;;;;5061095;28;20050;-78
2021/05/26 09:32:20;;;;;;;5.65;1.80;;;666.50;921.60;;;;;;5075997;28;20025;-78
2021/05/26 09:34:48;;;;;;;2.20;1.35;;;691.50;947.20;;;;;;5060311;28;20041;-78
2021/05/26 09:37:35;;;;;;;2.05;1.33;;;691.90;947.20;;;;;;5070647;28;20128;-79
2021/05/26 09:40:06;;;;;;;2.05;1.23;;;692.00;947.20;;;;;;5081938;28;20434;-78
2021/05/26 09:42:36;;;;;;;2.47;1.00;;;717.00;947.20;;;;;;5071462;28;20029;-79
2021/05/26 09:45:09;;;;;;;2.67;1.08;;;716.90;921.60;;;;;;5063059;28;20028;-79
2021/05/26 09:47:43;;;;;;;1.35;0.88;;;716.80;947.20;;;;;;5064288;28;20029;-79
2021/05/26 09:50:20;;;;;;;3.40;1.17;;;691.80;896.00;;;;;;5067432;28;20397;-79
2021/05/26 09:53:15;;;;;;;4.75;1.30;;;692.00;947.20;;;;;;5080119;28;20029;-79
2021/05/26 09:55:48;;;;;;;1.25;0.93;;;717.10;921.60;;;;;;5093362;28;20099;-79
2021/05/26 09:58:17;;;;;;;2.63;1.10;;;717.30;921.60;;;;;;5061223;28;20548;-79
2021/05/26 10:00:45;;;;;;;0.98;0.90;;;717.40;896.00;;;;;;5068036;28;20044;-79
2021/05/26 10:03:11;;;;;;;1.88;1.00;;;717.70;819.20;;;;;;5084003;28;20025;-80
2021/05/26 10:05:37;;;;;;;0.60;0.60;;;717.60;870.40;;;;;;5065465;28;20043;-80
2021/05/26 10:08:07;;;;;;;1.13;0.82;;;717.70;844.80;;;;;;5072943;28;20718;-79
2021/05/26 10:10:33;;;;;;;3.30;1.52;;;743.00;870.40;;;;;;5069991;28;20027;-80
2021/05/26 10:13:00;;;;;;;2.28;0.90;;;742.90;870.40;;;;;;5068775;28;20025;-79
2021/05/26 10:15:28;;;;;;;9.65;2.60;;;742.50;870.40;;;;;;5068135;28;20118;-80
2021/05/26 10:17:58;;;;;;;3.40;2.60;;;742.90;819.20;;;;;;5067588;28;20098;-79
2021/05/26 10:20:30;;;;;;;3.72;2.40;;;768.00;819.20;;;;;;5078885;28;20083;-79
2021/05/26 10:23:01;;;;;;;5.32;4.15;;;768.50;793.60;;;;;;5067439;28;20111;-79
2021/05/26 10:25:27;;;;;;;2.03;1.10;;;768.70;793.60;;;;;;5063175;28;20023;-79
2021/05/26 10:27:55;;;;;;;2.72;1.20;;;768.50;819.20;;;;;;5068218;28;20024;-80
2021/05/26 10:30:25;;;;;;;0.75;0.70;;;768.00;844.80;;;;;;5062936;28;20028;-80
2021/05/26 10:32:50;;;;;;;2.33;0.80;;;743.20;819.20;;;;;;5058863;28;20518;-80
2021/05/26 10:35:16;;;;;;;2.10;0.90;;;743.20;793.60;;;;;;5081983;28;20040;-79
2021/05/26 10:37:43;;;;;;;4.65;1.27;;;743.00;793.60;;;;;;5079472;28;20013;-79
2021/05/26 10:40:34;;;;;;;3.72;1.30;;;768.00;819.20;;;;;;5066318;28;20021;-79
2021/05/26 10:43:22;;;;;;;3.38;1.60;;;768.50;819.20;;;;;;5059497;28;20024;-79
2021/05/26 10:45:49;;;;;;;1.08;0.80;;;768.40;793.60;;;;;;5076434;28;20376;-80
2021/05/26 10:48:38;;;;;;;1.95;0.98;;;768.70;819.20;;;;;;5086482;28;20510;-80
2021/05/26 10:51:05;;;;;;;3.67;1.65;;;768.90;742.40;;;;;;5067325;28;20037;-80
2021/05/26 10:53:39;;;;;;;2.63;1.30;;;768.70;819.20;;;;;;5063594;28;20079;-80
2021/05/26 10:56:05;;;;;;;4.10;0.93;;;768.40;819.20;;;;;;5069543;28;20054;-80
2021/05/26 10:59:13;;;;;;;1.00;0.73;;;793.90;819.20;;;;;;5064532;28;20489;-80
2021/05/26 11:02:03;;;;;;;1.88;1.00;;;794.50;819.20;;;;;;5029861;28;20029;-80
2021/05/26 11:04:33;;;;;;;2.40;1.52;;;794.40;793.60;;;;;;5029118;28;20921;-80
2021/05/26 11:07:18;;;;;;;1.65;1.10;;;793.80;793.60;;;;;;5014334;28;20048;-80
2021/05/26 11:09:54;;;;;;;1.03;0.93;;;768.50;742.40;;;;;;5025570;28;20061;-79
2021/05/26 11:12:20;;;;;;;4.95;1.25;;;768.90;742.40;;;;;;5013599;28;20053;-80
2021/05/26 11:14:48;;;;;;;3.70;1.00;;;794.30;768.00;;;;;;5013262;28;20068;-79
2021/05/26 11:17:19;;;;;;;1.50;1.40;;;819.20;768.00;;;;;;5013226;28;20021;-78
2021/05/26 11:19:45;;;;;;;4.53;1.17;;;820.00;716.80;;;;;;5030720;28;20116;-79
2021/05/26 11:22:13;;;;;;;3.88;1.83;;;819.50;742.40;;;;;;5030375;28;20332;-79
2021/05/26 11:24:44;;;;;;;4.10;1.35;;;819.20;768.00;;;;;;5024987;28;20088;-80
2021/05/26 11:27:18;;;;;;;2.20;1.13;;;794.40;768.00;;;;;;5029962;28;20033;-78
2021/05/26 11:29:47;;;;;;;2.20;1.00;;;819.30;768.00;;;;;;5017487;28;20063;-79
2021/05/26 11:32:14;;;;;;;2.22;0.82;;;844.80;768.00;;;;;;5015127;28;20489;-79
2021/05/26 11:34:42;;;;;;;3.88;1.75;;;820.00;768.00;;;;;;5004106;28;20388;-79
2021/05/26 11:37:10;;;;;;;2.63;0.90;;;819.70;768.00;;;;;;5015081;28;20500;-79
2021/05/26 11:39:37;;;;;;;1.35;0.98;;;819.50;793.60;;;;;;5067220;28;20055;-79
2021/05/26 11:42:13;;;;;;;2.03;0.85;;;794.10;793.60;;;;;;5072961;28;20078;-79
2021/05/26 11:44:41;;;;;;;1.35;0.75;;;819.20;742.40;;;;;;5068017;28;20062;-80
2021/05/26 11:47:08;;;;;;;1.45;0.80;;;794.40;768.00;;;;;;5085441;28;20510;-80
2021/05/26 11:49:40;;;;;;;3.55;1.17;;;819.20;793.60;;;;;;5082660;28;20107;-80
2021/05/26 11:52:08;;;;;;;1.15;0.75;;;819.20;793.60;;;;;;5069416;28;20020;-79
2021/05/26 11:54:35;;;;;;;2.53;1.27;;;819.60;742.40;;;;;;5065789;28;20017;-79
2021/05/26 11:57:04;;;;;;;1.65;1.15;;;820.10;742.40;;;;;;5057049;28;20472;-79
2021/05/26 11:59:30;;;;;;;1.55;1.00;;;819.70;742.40;;;;;;5063403;28;20379;-79
2021/05/26 12:01:57;;;;;;;4.45;1.65;;;844.90;742.40;;;;;;5063428;28;20095;-79
2021/05/26 12:04:24;;;;;;;4.13;1.63;;;819.50;742.40;;;;;;5060912;28;20029;-80
2021/05/26 12:06:51;;;;;;;2.60;1.52;;;819.50;742.40;;;;;;5059907;28;20060;-81
2021/05/26 12:09:30;;;;;;;1.45;0.80;;;819.50;742.40;;;;;;5060752;28;20074;-79
2021/05/26 12:12:12;;;;;;;3.88;1.35;;;819.20;742.40;;;;;;5085421;28;20073;-80
2021/05/26 12:14:38;;;;;;;1.33;0.93;;;819.20;716.80;;;;;;5066697;28;20021;-79
2021/05/26 12:17:03;;;;;;;2.78;1.35;;;819.70;716.80;;;;;;5084890;28;20384;-82
2021/05/26 12:19:30;;;;;;;1.55;0.95;;;819.40;742.40;;;;;;5064565;28;20190;-81
2021/05/26 12:22:19;;;;;;;1.80;1.00;;;819.20;742.40;;;;;;5059669;28;20053;-82
2021/05/26 12:25:00;;;;;;;0.80;0.60;;;819.20;742.40;;;;;;5081234;28;20033;-81